Time;durP1;ratioP1;P1;durP2;ratioP2;P2;SDS_P1;SDS_P2;PMS_P1;PMS_P2;Temp;Humidity;BMP_temperature;BMP_pressure;BME280_temperature;BME280_humidity;BME280_pressure;Samples;Min_cycle;Max_cycle;Signal;HPM_P1;HPM_P2
2024/02/27 00:00:05;;;;;;;;;;;;;;;21.96;24.90;97934.25;4960096;28;1023;-77
2024/02/27 00:02:34;;;;;;;;;;;;;;;21.77;24.97;97930.38;4992972;28;1210;-76
2024/02/27 00:05:00;;;;;;;;;;;;;;;21.40;25.43;97937.47;4998965;28;917;-76
2024/02/27 00:07:25;;;;;;;;;;;;;;;21.19;25.76;97933.16;5015079;28;1010;-76
2024/02/27 00:09:51;;;;;;;;;;;;;;;21.47;25.61;97942.13;4998397;28;1914;-76
2024/02/27 00:12:17;;;;;;;;;;;;;;;21.50;25.65;97949.72;4998554;28;1331;-76
2024/02/27 00:14:43;;;;;;;;;;;;;;;21.73;25.13;97943.84;4998715;28;1516;-77
2024/02/27 00:17:08;;;;;;;;;;;;;;;21.66;25.40;97941.22;4998986;28;972;-76
2024/02/27 00:19:34;;;;;;;;;;;;;;;21.92;24.64;97933.59;5014651;28;1060;-76
2024/02/27 00:21:59;;;;;;;;;;;;;;;21.68;24.94;97935.09;4998840;28;1171;-76
2024/02/27 00:24:25;;;;;;;;;;;;;;;21.66;25.25;97931.91;4982077;28;958;-76
2024/02/27 00:26:50;;;;;;;;;;;;;;;21.67;25.05;97931.47;4998773;28;954;-76
2024/02/27 00:29:18;;;;;;;;;;;;;;;21.68;25.10;97927.41;4998443;28;964;-76
2024/02/27 00:31:44;;;;;;;;;;;;;;;21.91;24.93;97937.66;5001128;28;1991;-76
2024/02/27 00:34:09;;;;;;;;;;;;;;;21.87;25.11;97941.84;5018826;28;938;-76
2024/02/27 00:36:34;;;;;;;;;;;;;;;21.98;24.89;97933.84;5036780;28;900;-77
2024/02/27 00:39:00;;;;;;;;;;;;;;;21.79;24.96;97930.72;5035505;28;1009;-76
2024/02/27 00:41:25;;;;;;;;;;;;;;;21.41;25.60;97938.25;5018884;28;1051;-76
2024/02/27 00:43:51;;;;;;;;;;;;;;;21.38;25.65;97939.94;5035565;28;922;-75
2024/02/27 00:46:16;;;;;;;;;;;;;;;21.66;25.28;97944.03;5018852;28;894;-76
2024/02/27 00:48:42;;;;;;;;;;;;;;;21.56;25.57;97950.78;5035178;28;1316;-76
2024/02/27 00:51:07;;;;;;;;;;;;;;;21.69;25.17;97954.47;5001859;28;1979;-76
2024/02/27 00:53:33;;;;;;;;;;;;;;;21.84;25.03;97944.31;5035310;28;954;-76
2024/02/27 00:55:58;;;;;;;;;;;;;;;21.83;25.15;97951.25;5035176;28;900;-76
2024/02/27 00:58:24;;;;;;;;;;;;;;;21.95;25.15;97954.56;5034767;28;944;-76
2024/02/27 01:00:49;;;;;;;;;;;;;;;21.81;24.96;97945.25;5001739;28;1120;-76
2024/02/27 01:03:15;;;;;;;;;;;;;;;21.67;25.33;97956.97;5036000;28;914;-76
2024/02/27 01:05:41;;;;;;;;;;;;;;;21.61;25.37;97946.63;5017657;28;1023;-77
2024/02/27 01:08:06;;;;;;;;;;;;;;;21.66;25.36;97946.88;5035226;28;886;-76
2024/02/27 01:10:32;;;;;;;;;;;;;;;21.59;25.28;97955.56;5036068;28;1902;-76
2024/02/27 01:12:57;;;;;;;;;;;;;;;21.67;25.39;97945.63;5035885;28;901;-76
2024/02/27 01:15:23;;;;;;;;;;;;;;;21.97;24.96;97943.59;5036485;28;932;-76
2024/02/27 01:17:48;;;;;;;;;;;;;;;21.84;24.98;97950.00;5036100;28;935;-76
2024/02/27 01:20:14;;;;;;;;;;;;;;;21.84;24.90;97947.16;5018600;28;1233;-76
2024/02/27 01:22:39;;;;;;;;;;;;;;;21.62;25.26;97954.66;5036274;28;1101;-76
2024/02/27 01:25:06;;;;;;;;;;;;;;;21.26;25.52;97958.41;5038621;28;875;-77
2024/02/27 01:27:31;;;;;;;;;;;;;;;21.44;25.54;97957.16;5039193;28;1212;-76
2024/02/27 01:29:57;;;;;;;;;;;;;;;21.53;25.39;97955.31;5038556;28;1906;-76
2024/02/27 01:32:22;;;;;;;;;;;;;;;21.90;24.78;97955.09;5038696;28;1021;-76
2024/02/27 01:34:48;;;;;;;;;;;;;;;21.63;25.25;97958.28;5039958;28;900;-76
2024/02/27 01:37:13;;;;;;;;;;;;;;;21.94;24.75;97964.31;5022468;28;1228;-75
2024/02/27 01:39:39;;;;;;;;;;;;;;;21.99;24.80;97955.25;5038529;28;1304;-75
2024/02/27 01:42:04;;;;;;;;;;;;;;;21.68;25.34;97957.75;5006085;28;1093;-76
2024/02/27 01:44:30;;;;;;;;;;;;;;;21.53;25.59;97963.78;5039939;28;926;-77
2024/02/27 01:46:56;;;;;;;;;;;;;;;21.52;25.46;97952.91;5039986;28;960;-76
2024/02/27 01:49:21;;;;;;;;;;;;;;;21.57;25.45;97958.03;5038391;28;895;-76
2024/02/27 01:51:47;;;;;;;;;;;;;;;21.76;25.12;97953.47;5022159;28;1981;-76
2024/02/27 01:54:14;;;;;;;;;;;;;;;21.76;25.02;97965.59;5038895;28;931;-76
2024/02/27 01:56:39;;;;;;;;;;;;;;;21.87;24.88;97970.19;5039433;28;898;-76
2024/02/27 01:59:04;;;;;;;;;;;;;;;21.72;25.00;97966.94;5021788;28;1048;-77
2024/02/27 02:01:30;;;;;;;;;;;;;;;21.56;25.36;97968.56;5005668;28;1148;-76
2024/02/27 02:03:55;;;;;;;;;;;;;;;21.50;25.17;97963.88;5000607;28;938;-76
2024/02/27 02:06:21;;;;;;;;;;;;;;;21.42;25.57;97968.94;5001159;28;1435;-76
2024/02/27 02:08:46;;;;;;;;;;;;;;;21.61;25.26;97961.59;4984741;28;982;-76
2024/02/27 02:11:12;;;;;;;;;;;;;;;21.72;25.11;97973.41;5001069;28;1902;-76
2024/02/27 02:13:37;;;;;;;;;;;;;;;21.74;25.02;97968.06;4961633;28;1023;-76
2024/02/27 02:16:03;;;;;;;;;;;;;;;21.85;24.83;97967.78;4946104;28;1244;-76
2024/02/27 02:18:29;;;;;;;;;;;;;;;21.87;24.92;97973.81;4977824;28;971;-76
2024/02/27 02:20:55;;;;;;;;;;;;;;;21.60;25.33;97971.28;4939886;29;1426;-76
2024/02/27 02:23:20;;;;;;;;;;;;;;;21.56;25.12;97968.56;4939152;29;957;-76
2024/02/27 02:25:46;;;;;;;;;;;;;;;21.58;25.20;97959.63;4939820;29;981;-76
2024/02/27 02:28:12;;;;;;;;;;;;;;;21.79;25.11;97970.38;4939157;29;1006;-76
2024/02/27 02:30:37;;;;;;;;;;;;;;;21.41;24.96;97893.78;4901240;29;1982;-77
2024/02/27 02:33:03;;;;;;;;;;;;;;;22.08;24.68;97980.91;4901027;29;1005;-76
2024/02/27 02:35:28;;;;;;;;;;;;;;;21.98;24.65;97970.66;4859652;29;1186;-77
2024/02/27 02:37:54;;;;;;;;;;;;;;;21.81;24.97;97973.56;4901669;29;947;-76
2024/02/27 02:40:20;;;;;;;;;;;;;;;21.69;24.87;97977.13;4863877;29;1403;-76
2024/02/27 02:42:45;;;;;;;;;;;;;;;21.49;25.25;97990.59;4863888;29;997;-77
2024/02/27 02:45:11;;;;;;;;;;;;;;;21.62;25.21;97994.31;4889451;29;1192;-76
2024/02/27 02:47:36;;;;;;;;;;;;;;;21.64;25.18;98008.81;4904296;29;1114;-76
2024/02/27 02:50:02;;;;;;;;;;;;;;;21.90;25.00;98004.06;4888597;29;1977;-76
2024/02/27 02:52:28;;;;;;;;;;;;;;;21.95;24.70;98011.22;4951192;28;970;-77
2024/02/27 02:54:53;;;;;;;;;;;;;;;21.87;25.19;98007.81;4961379;28;1179;-76
2024/02/27 02:57:19;;;;;;;;;;;;;;;21.89;24.90;98008.13;4945600;28;1111;-77
2024/02/27 02:59:44;;;;;;;;;;;;;;;21.42;25.39;98005.75;4961320;28;911;-76
2024/02/27 03:02:10;;;;;;;;;;;;;;;21.28;25.61;98009.69;4945295;28;1055;-76
2024/02/27 03:04:35;;;;;;;;;;;;;;;21.53;25.36;98005.47;4907083;29;1129;-76
2024/02/27 03:07:01;;;;;;;;;;;;;;;21.67;25.06;98004.31;4924121;29;1029;-76
2024/02/27 03:09:26;;;;;;;;;;;;;;;21.68;25.21;98009.50;4941600;29;972;-76
2024/02/27 03:11:52;;;;;;;;;;;;;;;21.82;24.95;98009.13;4959103;28;1910;-76
2024/02/27 03:14:17;;;;;;;;;;;;;;;21.94;25.04;98015.28;4957681;29;1114;-76
2024/02/27 03:16:45;;;;;;;;;;;;;;;22.02;24.69;98008.16;4926419;29;939;-76
2024/02/27 03:19:10;;;;;;;;;;;;;;;21.83;24.79;98010.72;4926165;29;1060;-77
2024/02/27 03:21:36;;;;;;;;;;;;;;;21.46;25.17;98002.84;4941859;29;982;-76
2024/02/27 03:24:02;;;;;;;;;;;;;;;21.41;25.31;98006.19;4925521;28;1415;-77
2024/02/27 03:26:27;;;;;;;;;;;;;;;21.47;25.44;98010.09;4957610;28;1185;-76
2024/02/27 03:28:53;;;;;;;;;;;;;;;21.48;25.27;98006.00;4957299;28;963;-75
2024/02/27 03:31:18;;;;;;;;;;;;;;;21.69;25.35;98011.09;4941462;29;1907;-76
2024/02/27 03:33:44;;;;;;;;;;;;;;;21.82;24.99;98009.13;4941234;29;930;-76
2024/02/27 03:36:09;;;;;;;;;;;;;;;21.84;24.63;98015.13;5000998;28;946;-76
2024/02/27 03:38:37;;;;;;;;;;;;;;;21.93;24.60;98019.38;5015717;28;1185;-76
2024/02/27 03:41:03;;;;;;;;;;;;;;;21.70;24.98;98021.19;5016190;28;989;-77
2024/02/27 03:43:28;;;;;;;;;;;;;;;21.42;25.34;98024.78;4982941;28;997;-76
2024/02/27 03:45:54;;;;;;;;;;;;;;;21.15;26.09;98028.63;5010175;28;940;-76
2024/02/27 03:48:19;;;;;;;;;;;;;;;21.36;25.66;98020.88;5036318;28;1476;-76
2024/02/27 03:50:45;;;;;;;;;;;;;;;21.57;25.21;98020.34;5036402;28;1910;-76
2024/02/27 03:53:10;;;;;;;;;;;;;;;21.55;25.41;98017.97;5018574;28;923;-76
2024/02/27 03:55:36;;;;;;;;;;;;;;;21.81;24.96;98018.06;5037627;28;979;-76
2024/02/27 03:58:02;;;;;;;;;;;;;;;21.76;25.08;98016.59;5036040;28;964;-76
2024/02/27 04:00:27;;;;;;;;;;;;;;;21.67;25.28;98024.91;5019761;28;1112;-76
2024/02/27 04:02:53;;;;;;;;;;;;;;;21.23;25.79;98030.03;5037298;28;913;-76
2024/02/27 04:05:19;;;;;;;;;;;;;;;21.55;25.19;98022.78;5036203;28;940;-76
2024/02/27 04:07:44;;;;;;;;;;;;;;;21.65;25.15;98018.88;5036347;28;1014;-76
2024/02/27 04:10:10;;;;;;;;;;;;;;;21.77;25.03;98011.72;5035998;28;1926;-75
2024/02/27 04:12:35;;;;;;;;;;;;;;;21.88;24.68;98015.03;5035980;28;937;-75
2024/02/27 04:15:01;;;;;;;;;;;;;;;22.07;24.78;98018.97;5019221;28;1353;-75
2024/02/27 04:17:27;;;;;;;;;;;;;;;21.81;24.69;98021.72;5035913;28;879;-75
2024/02/27 04:19:54;;;;;;;;;;;;;;;21.44;25.20;98030.78;5018994;28;877;-75
2024/02/27 04:22:20;;;;;;;;;;;;;;;21.47;25.21;98021.41;5019407;28;850;-75
2024/02/27 04:24:46;;;;;;;;;;;;;;;21.51;25.14;98027.78;5035797;28;961;-75
2024/02/27 04:27:12;;;;;;;;;;;;;;;21.61;25.15;98025.91;5019515;28;1139;-75
2024/02/27 04:29:39;;;;;;;;;;;;;;;21.78;24.78;98024.63;5035587;28;998;-75
2024/02/27 04:32:06;;;;;;;;;;;;;;;21.95;24.93;98028.22;5035599;28;1972;-75
2024/02/27 04:34:32;;;;;;;;;;;;;;;21.92;24.84;98029.13;5035875;28;976;-76
2024/02/27 04:36:57;;;;;;;;;;;;;;;21.84;25.08;98028.50;5035589;28;928;-75
2024/02/27 04:39:23;;;;;;;;;;;;;;;21.81;24.69;98035.88;5035745;28;1017;-75
2024/02/27 04:41:48;;;;;;;;;;;;;;;21.66;24.84;98029.00;5035881;28;942;-76
2024/02/27 04:44:14;;;;;;;;;;;;;;;21.54;25.06;98036.16;5036449;28;919;-75
2024/02/27 04:46:39;;;;;;;;;;;;;;;21.40;25.49;98038.56;5035439;28;956;-75
2024/02/27 04:49:05;;;;;;;;;;;;;;;21.75;24.83;98042.50;5036398;28;949;-75
2024/02/27 04:51:30;;;;;;;;;;;;;;;21.74;25.32;98041.72;5036794;28;1977;-75
2024/02/27 04:53:56;;;;;;;;;;;;;;;21.84;24.95;98040.63;5018911;28;951;-75
2024/02/27 04:56:21;;;;;;;;;;;;;;;21.97;24.69;98035.03;5035687;28;890;-75
2024/02/27 04:58:47;;;;;;;;;;;;;;;22.02;24.39;98040.16;4998110;28;1236;-75
2024/02/27 05:01:13;;;;;;;;;;;;;;;21.51;25.18;98044.75;4998369;28;1124;-75
2024/02/27 05:03:41;;;;;;;;;;;;;;;21.46;25.27;98053.78;5014534;28;924;-76
2024/02/27 05:06:07;;;;;;;;;;;;;;;21.51;25.53;98044.75;4998503;28;1256;-76
2024/02/27 05:08:32;;;;;;;;;;;;;;;21.77;24.88;98045.72;4997909;28;1176;-75
2024/02/27 05:10:58;;;;;;;;;;;;;;;21.59;25.37;98060.31;5015290;28;1906;-75
2024/02/27 05:13:23;;;;;;;;;;;;;;;21.81;25.00;98063.38;4981321;28;810;-75
2024/02/27 05:15:50;;;;;;;;;;;;;;;21.93;24.63;98070.38;5014594;28;882;-75
2024/02/27 05:18:15;;;;;;;;;;;;;;;21.57;25.29;98076.97;5013815;28;954;-75
2024/02/27 05:20:41;;;;;;;;;;;;;;;21.47;25.19;98083.69;4998062;28;771;-76
2024/02/27 05:23:06;;;;;;;;;;;;;;;21.31;25.38;98082.44;4955789;29;1343;-76
2024/02/27 05:25:32;;;;;;;;;;;;;;;21.79;25.05;98080.81;4972128;28;1101;-75
2024/02/27 05:27:57;;;;;;;;;;;;;;;21.93;24.90;98076.03;4939675;29;760;-75
2024/02/27 05:30:23;;;;;;;;;;;;;;;21.91;24.74;98079.28;4985318;28;1977;-75
2024/02/27 05:32:48;;;;;;;;;;;;;;;21.72;25.23;98089.50;4994476;28;895;-74
2024/02/27 05:35:14;;;;;;;;;;;;;;;21.85;24.86;98093.19;4978212;28;1113;-75
2024/02/27 05:37:40;;;;;;;;;;;;;;;21.57;25.32;98099.59;4962323;28;1053;-75
2024/02/27 05:40:09;;;;;;;;;;;;;;;21.41;25.34;98096.78;4993934;28;1209;-75
2024/02/27 05:42:34;;;;;;;;;;;;;;;21.24;25.59;98104.41;4958805;28;857;-75
2024/02/27 05:45:00;;;;;;;;;;;;;;;21.74;25.16;98101.19;4958575;28;940;-75
2024/02/27 05:47:26;;;;;;;;;;;;;;;21.54;25.53;98100.47;4942570;28;831;-76
2024/02/27 05:49:52;;;;;;;;;;;;;;;21.84;24.82;98097.28;4958771;28;805;-76
2024/02/27 05:52:18;;;;;;;;;;;;;;;21.75;25.13;98102.78;4943015;28;1979;-75
2024/02/27 05:54:43;;;;;;;;;;;;;;;21.84;24.82;98108.59;4958846;28;915;-75
2024/02/27 05:57:09;;;;;;;;;;;;;;;21.59;25.16;98106.41;4959004;28;811;-75
2024/02/27 05:59:35;;;;;;;;;;;;;;;21.06;26.03;98105.63;4958305;28;782;-76
2024/02/27 06:02:00;;;;;;;;;;;;;;;21.27;25.71;98109.19;4936529;29;1045;-75
2024/02/27 06:04:26;;;;;;;;;;;;;;;21.49;25.41;98115.16;4950557;29;788;-75
2024/02/27 06:06:52;;;;;;;;;;;;;;;21.47;25.35;98123.31;4955728;29;888;-75
2024/02/27 06:09:17;;;;;;;;;;;;;;;21.72;25.16;98117.84;4957020;28;722;-75
2024/02/27 06:11:42;;;;;;;;;;;;;;;21.79;24.93;98126.13;4923969;29;1984;-75
2024/02/27 06:14:08;;;;;;;;;;;;;;;21.88;25.11;98130.41;4939322;29;1060;-75
2024/02/27 06:16:34;;;;;;;;;;;;;;;21.83;25.05;98129.69;4920561;29;834;-75
2024/02/27 06:18:59;;;;;;;;;;;;;;;21.44;25.60;98138.34;4920173;29;1068;-76
2024/02/27 06:24:09;;;;;;;;;;;;;;;21.49;25.24;98137.81;4904715;29;1244;-75
2024/02/27 06:26:34;;;;;;;;;;;;;;;21.60;25.30;98146.84;4920958;29;821;-75
2024/02/27 06:29:00;;;;;;;;;;;;;;;21.83;25.03;98146.69;4920645;29;889;-75
2024/02/27 06:31:26;;;;;;;;;;;;;;;21.89;24.85;98143.31;4920405;29;1914;-75
2024/02/27 06:33:51;;;;;;;;;;;;;;;21.83;24.98;98143.84;4920180;29;929;-76
2024/02/27 06:36:17;;;;;;;;;;;;;;;21.72;25.20;98146.16;4904595;29;1228;-75
2024/02/27 06:38:42;;;;;;;;;;;;;;;21.53;25.31;98149.84;4927134;29;1128;-76
2024/02/27 06:41:08;;;;;;;;;;;;;;;21.35;25.45;98144.63;4942725;29;965;-76
2024/02/27 06:43:33;;;;;;;;;;;;;;;21.75;25.22;98150.91;4936612;29;1177;-75
2024/02/27 06:45:59;;;;;;;;;;;;;;;21.83;25.15;98158.00;4942728;29;1215;-76
2024/02/27 06:48:28;;;;;;;;;;;;;;;21.89;25.02;98157.47;4941963;29;1066;-75
2024/02/27 06:50:54;;;;;;;;;;;;;;;21.70;25.06;98159.94;4927225;29;1914;-75
2024/02/27 06:53:21;;;;;;;;;;;;;;;21.79;25.01;98151.63;4939611;28;957;-75
2024/02/27 06:55:48;;;;;;;;;;;;;;;21.59;25.31;98157.38;4984168;28;1046;-75
2024/02/27 06:58:14;;;;;;;;;;;;;;;21.48;25.57;98165.34;4957842;29;1277;-75
2024/02/27 07:00:39;;;;;;;;;;;;;;;21.47;25.55;98174.28;4942298;29;1105;-76
2024/02/27 07:03:05;;;;;;;;;;;;;;;21.82;25.14;98173.41;4906506;29;1258;-75
2024/02/27 07:05:30;;;;;;;;;;;;;;;21.91;24.84;98175.63;4938743;29;1059;-75
2024/02/27 07:07:56;;;;;;;;;;;;;;;21.89;24.85;98182.97;4922798;29;877;-76
2024/02/27 07:10:21;;;;;;;;;;;;;;;21.86;24.95;98181.81;4938334;29;1903;-76
2024/02/27 07:12:47;;;;;;;;;;;;;;;21.66;24.99;98187.56;4922938;29;841;-76
2024/02/27 07:15:12;;;;;;;;;;;;;;;21.43;25.30;98177.19;4922645;29;1131;-75
2024/02/27 07:17:38;;;;;;;;;;;;;;;21.37;25.93;98186.63;4923096;29;1342;-75
2024/02/27 07:20:03;;;;;;;;;;;;;;;21.46;25.46;98181.19;4939653;29;903;-75
2024/02/27 07:22:31;;;;;;;;;;;;;;;21.91;25.05;98183.31;4942119;29;1328;-76
2024/02/27 07:24:56;;;;;;;;;;;;;;;21.91;24.97;98181.28;4957280;29;792;-76
2024/02/27 07:27:22;;;;;;;;;;;;;;;21.94;25.13;98185.28;4958085;29;799;-75
2024/02/27 07:29:47;;;;;;;;;;;;;;;21.95;24.73;98181.19;4986509;28;1207;-75
2024/02/27 07:32:14;;;;;;;;;;;;;;;21.44;25.76;98184.44;4996681;28;1914;-76
2024/02/27 07:34:42;;;;;;;;;;;;;;;21.42;25.57;98192.56;5027065;28;775;-75
2024/02/27 07:37:10;;;;;;;;;;;;;;;21.53;25.57;98190.28;5036768;28;699;-75
2024/02/27 07:39:36;;;;;;;;;;;;;;;21.53;25.42;98195.16;5036294;28;1213;-75
2024/02/27 07:42:02;;;;;;;;;;;;;;;21.92;24.96;98199.91;5036773;28;744;-75
2024/02/27 07:44:28;;;;;;;;;;;;;;;21.79;25.22;98208.28;4996000;28;856;-75
2024/02/27 07:46:53;;;;;;;;;;;;;;;21.83;25.32;98211.84;4956974;29;950;-75
2024/02/27 07:49:19;;;;;;;;;;;;;;;21.74;25.40;98205.97;4941077;29;847;-75
2024/02/27 07:51:45;;;;;;;;;;;;;;;21.46;25.68;98206.66;4925487;29;1974;-74
2024/02/27 07:54:11;;;;;;;;;;;;;;;21.24;26.30;98211.94;4941150;29;962;-75
2024/02/27 07:56:36;;;;;;;;;;;;;;;21.64;25.74;98207.03;4925563;29;840;-75
2024/02/27 07:59:02;;;;;;;;;;;;;;;21.90;25.40;98218.56;4925144;29;1089;-75
2024/02/27 08:01:29;;;;;;;;;;;;;;;21.90;25.18;98216.50;4925399;29;906;-75
2024/02/27 08:03:55;;;;;;;;;;;;;;;21.77;25.71;98219.25;4940804;29;835;-76
2024/02/27 08:06:21;;;;;;;;;;;;;;;21.93;25.19;98220.53;4925410;29;1190;-75
2024/02/27 08:08:46;;;;;;;;;;;;;;;21.76;25.75;98217.69;4956421;29;740;-75
2024/02/27 08:11:12;;;;;;;;;;;;;;;21.80;25.40;98215.53;4956980;29;1910;-76
2024/02/27 08:13:38;;;;;;;;;;;;;;;21.54;25.90;98222.22;4924407;29;988;-76
2024/02/27 08:16:03;;;;;;;;;;;;;;;21.63;25.70;98221.63;4986396;28;1137;-75
2024/02/27 08:18:29;;;;;;;;;;;;;;;21.77;25.68;98216.44;5009436;28;1139;-75
2024/02/27 08:20:54;;;;;;;;;;;;;;;21.97;25.44;98224.88;5036922;28;810;-76
2024/02/27 08:23:20;;;;;;;;;;;;;;;22.05;25.15;98216.97;5003173;28;1320;-75
2024/02/27 08:25:46;;;;;;;;;;;;;;;21.61;25.98;98219.25;5035761;28;1044;-75
2024/02/27 08:28:12;;;;;;;;;;;;;;;21.53;25.82;98223.47;5014206;28;1241;-76
2024/02/27 08:30:37;;;;;;;;;;;;;;;21.44;26.16;98226.09;4975506;28;1902;-75
2024/02/27 08:33:03;;;;;;;;;;;;;;;21.72;25.97;98222.63;4959127;28;741;-76
2024/02/27 08:35:29;;;;;;;;;;;;;;;21.75;25.88;98212.44;4959948;28;1797;-76
2024/02/27 08:37:55;;;;;;;;;;;;;;;22.04;25.23;98223.88;4943517;28;856;-76
2024/02/27 08:40:21;;;;;;;;;;;;;;;22.03;25.55;98222.28;4959260;28;1318;-74
2024/02/27 08:42:46;;;;;;;;;;;;;;;22.08;25.48;98224.59;4959731;28;1173;-75
2024/02/27 08:45:12;;;;;;;;;;;;;;;21.87;25.39;98222.28;4975634;28;892;-75
2024/02/27 08:47:37;;;;;;;;;;;;;;;21.60;26.17;98223.28;4959379;28;1229;-76
2024/02/27 08:50:03;;;;;;;;;;;;;;;21.62;25.96;98226.50;4974855;28;791;-75
2024/02/27 08:52:29;;;;;;;;;;;;;;;21.60;26.14;98240.28;4927736;28;1984;-76
2024/02/27 08:54:54;;;;;;;;;;;;;;;21.84;25.80;98238.91;4958996;28;887;-75
2024/02/27 08:57:21;;;;;;;;;;;;;;;21.89;25.65;98239.63;4959663;28;898;-75
2024/02/27 08:59:47;;;;;;;;;;;;;;;21.92;25.77;98238.75;5004570;28;924;-75
2024/02/27 09:02:13;;;;;;;;;;;;;;;21.95;25.69;98244.31;5031624;28;775;-75
2024/02/27 09:04:39;;;;;;;;;;;;;;;22.00;25.64;98245.84;5034990;28;715;-75
2024/02/27 09:07:04;;;;;;;;;;;;;;;21.63;25.84;98245.09;5035756;28;783;-75
2024/02/27 09:09:30;;;;;;;;;;;;;;;21.37;26.18;98248.91;5018547;28;1045;-75
2024/02/27 09:11:55;;;;;;;;;;;;;;;21.64;26.02;98235.34;5035278;28;1906;-76
2024/02/27 09:14:22;;;;;;;;;;;;;;;21.75;25.76;98247.22;5035102;28;811;-75
2024/02/27 09:16:48;;;;;;;;;;;;;;;22.00;25.62;98245.84;5035539;28;909;-75
2024/02/27 09:19:13;;;;;;;;;;;;;;;22.04;25.68;98240.88;5034840;28;836;-75
2024/02/27 09:21:39;;;;;;;;;;;;;;;21.71;25.73;98240.84;5017951;28;993;-76
2024/02/27 09:24:05;;;;;;;;;;;;;;;21.64;25.88;98246.66;5036104;28;723;-75
2024/02/27 09:26:30;;;;;;;;;;;;;;;21.72;25.86;98247.31;5036231;28;842;-76
2024/02/27 09:28:56;;;;;;;;;;;;;;;21.81;25.89;98239.81;5001273;28;899;-76
2024/02/27 09:31:22;;;;;;;;;;;;;;;21.58;26.12;98252.06;5018568;28;1890;-76
2024/02/27 09:33:47;;;;;;;;;;;;;;;21.87;26.11;98259.13;5034854;28;1640;-75
2024/02/27 09:36:13;;;;;;;;;;;;;;;22.09;25.74;98248.84;5036408;28;756;-75
2024/02/27 09:38:38;;;;;;;;;;;;;;;21.42;26.37;98248.41;5035844;28;1025;-76
2024/02/27 09:41:04;;;;;;;;;;;;;;;21.56;26.27;98250.91;5035391;28;899;-75
2024/02/27 09:43:30;;;;;;;;;;;;;;;21.27;26.68;98257.16;5018878;28;716;-75
2024/02/27 09:45:59;;;;;;;;;;;;;;;21.42;26.50;98252.03;5039180;28;806;-76
2024/02/27 09:48:30;;;;;;;;;;;;;;;21.69;26.24;98254.66;5021801;28;1097;-75
2024/02/27 09:50:56;;;;;;;;;;;;;;;21.98;25.75;98254.78;5039073;28;1913;-75
2024/02/27 09:53:22;;;;;;;;;;;;;;;22.20;25.29;98257.91;5039799;28;731;-75
2024/02/27 09:55:47;;;;;;;;;;;;;;;21.99;25.75;98261.25;5039014;28;822;-75
2024/02/27 09:58:13;;;;;;;;;;;;;;;21.45;26.22;98251.16;5038532;28;791;-75
2024/02/27 10:00:39;;;;;;;;;;;;;;;21.30;26.54;98249.88;5038949;28;891;-75
2024/02/27 10:03:04;;;;;;;;;;;;;;;21.82;26.04;98258.41;5039640;28;763;-75
2024/02/27 10:05:30;;;;;;;;;;;;;;;21.73;26.21;98254.56;5001159;28;1145;-76
2024/02/27 10:07:56;;;;;;;;;;;;;;;22.02;25.76;98263.19;5000657;28;817;-76
2024/02/27 10:10:21;;;;;;;;;;;;;;;22.06;25.60;98249.72;5000715;28;1914;-75
2024/02/27 10:12:47;;;;;;;;;;;;;;;21.93;25.56;98257.34;4984805;28;880;-76
2024/02/27 10:15:12;;;;;;;;;;;;;;;21.84;25.60;98238.91;5000994;28;924;-76
2024/02/27 10:17:38;;;;;;;;;;;;;;;21.22;26.43;98252.00;4962057;28;1126;-75
2024/02/27 10:20:10;;;;;;;;;;;;;;;21.70;25.97;98250.56;4977915;28;864;-75
2024/02/27 10:22:36;;;;;;;;;;;;;;;21.74;25.96;98256.94;4978139;28;868;-75
2024/02/27 10:25:10;;;;;;;;;;;;;;;21.90;25.91;98252.56;4961805;28;855;-75
2024/02/27 10:27:37;;;;;;;;;;;;;;;21.94;25.63;98253.28;4977944;28;779;-75
2024/02/27 10:30:03;;;;;;;;;;;;;;;22.00;25.57;98243.00;4977790;28;969;-75
2024/02/27 10:32:32;;;;;;;;;;;;;;;21.71;25.94;98252.19;4923202;29;1971;-77
2024/02/27 10:34:57;;;;;;;;;;;;;;;21.73;26.04;98261.03;4939175;29;997;-75
2024/02/27 10:37:31;;;;;;;;;;;;;;;21.69;25.94;98245.34;4939139;29;941;-76
2024/02/27 10:39:56;;;;;;;;;;;;;;;21.99;25.89;98249.91;4924290;29;1088;-76
2024/02/27 10:42:22;;;;;;;;;;;;;;;21.83;25.93;98243.00;4923611;29;900;-76
2024/02/27 10:44:47;;;;;;;;;;;;;;;21.71;26.50;98240.03;4923021;29;808;-75
2024/02/27 10:47:14;;;;;;;;;;;;;;;21.93;26.10;98240.34;4939673;29;700;-75
2024/02/27 10:49:41;;;;;;;;;;;;;;;21.89;25.86;98243.25;4977330;28;1075;-75
2024/02/27 10:52:07;;;;;;;;;;;;;;;21.62;26.56;98245.53;4981475;28;1918;-75
2024/02/27 10:54:32;;;;;;;;;;;;;;;21.30;26.83;98250.66;4980523;28;755;-75
2024/02/27 10:56:58;;;;;;;;;;;;;;;21.74;26.50;98245.63;4977337;28;962;-75
2024/02/27 10:59:25;;;;;;;;;;;;;;;22.00;25.98;98246.63;4961394;28;791;-74
2024/02/27 11:01:51;;;;;;;;;;;;;;;22.04;25.99;98246.53;4961265;28;871;-75
2024/02/27 11:04:23;;;;;;;;;;;;;;;22.06;25.82;98255.41;4977091;28;913;-75
2024/02/27 11:06:49;;;;;;;;;;;;;;;21.83;25.94;98251.50;4961686;28;744;-76
2024/02/27 11:09:15;;;;;;;;;;;;;;;21.61;26.17;98256.06;4935524;28;1649;-75
2024/02/27 11:11:43;;;;;;;;;;;;;;;21.51;26.51;98248.59;4964166;28;1979;-75
2024/02/27 11:14:08;;;;;;;;;;;;;;;21.32;26.72;98253.84;4980193;28;870;-75
2024/02/27 11:16:36;;;;;;;;;;;;;;;21.72;26.43;98248.13;4981120;28;960;-75
2024/02/27 11:19:17;;;;;;;;;;;;;;;21.69;26.52;98246.16;4963856;28;1171;-75
2024/02/27 11:21:42;;;;;;;;;;;;;;;21.89;26.04;98242.47;4980324;28;828;-75
2024/02/27 11:24:08;;;;;;;;;;;;;;;21.87;26.28;98230.78;4980197;28;888;-75
2024/02/27 11:26:34;;;;;;;;;;;;;;;21.63;26.67;98239.41;4980220;28;697;-74
2024/02/27 11:28:59;;;;;;;;;;;;;;;21.03;27.29;98244.31;4975216;28;1115;-76
2024/02/27 11:31:25;;;;;;;;;;;;;;;21.43;26.63;98241.50;4976996;28;1975;-76
2024/02/27 11:33:50;;;;;;;;;;;;;;;21.71;26.48;98249.34;4944422;28;1254;-75
2024/02/27 11:36:16;;;;;;;;;;;;;;;21.83;26.44;98254.31;4944833;28;1212;-75
2024/02/27 11:38:44;;;;;;;;;;;;;;;22.02;26.28;98249.00;4944556;28;1083;-75
2024/02/27 11:41:20;;;;;;;;;;;;;;;21.94;25.98;98244.78;4979043;28;760;-75
2024/02/27 11:43:48;;;;;;;;;;;;;;;21.72;26.40;98250.94;4956997;29;903;-75
2024/02/27 11:46:29;;;;;;;;;;;;;;;21.31;26.72;98246.59;4942408;29;1026;-75
2024/02/27 11:48:54;;;;;;;;;;;;;;;21.28;27.01;98244.59;4941226;29;963;-76
2024/02/27 11:51:23;;;;;;;;;;;;;;;21.60;26.54;98254.44;4941065;29;1910;-76
2024/02/27 11:53:48;;;;;;;;;;;;;;;21.72;26.48;98239.63;4925426;29;827;-75
2024/02/27 11:56:14;;;;;;;;;;;;;;;21.73;26.34;98244.03;4925495;29;2191;-75
2024/02/27 11:58:40;;;;;;;;;;;;;;;21.99;26.07;98241.41;4940778;29;1023;-75
2024/02/27 12:01:07;;;;;;;;;;;;;;;21.75;26.25;98235.88;4977864;28;884;-75
2024/02/27 12:03:32;;;;;;;;;;;;;;;21.24;26.96;98241.06;4979389;28;789;-76
2024/02/27 12:06:03;;;;;;;;;;;;;;;21.50;26.64;98233.66;4994955;28;952;-75
2024/02/27 12:08:30;;;;;;;;;;;;;;;21.92;26.18;98238.75;4979422;28;815;-76
2024/02/27 12:10:56;;;;;;;;;;;;;;;21.95;26.23;98249.19;4996107;28;1973;-76
2024/02/27 12:13:21;;;;;;;;;;;;;;;22.06;26.20;98244.06;4978810;28;748;-75
2024/02/27 12:15:56;;;;;;;;;;;;;;;22.03;26.01;98250.63;5033626;28;842;-76
2024/02/27 12:18:22;;;;;;;;;;;;;;;21.87;26.29;98247.78;5035462;28;846;-76
2024/02/27 12:20:51;;;;;;;;;;;;;;;21.49;26.65;98245.41;5036015;28;716;-76
2024/02/27 12:23:17;;;;;;;;;;;;;;;21.40;26.91;98242.34;5018873;28;784;-75
2024/02/27 12:25:43;;;;;;;;;;;;;;;21.46;26.63;98240.63;5035761;28;771;-74
2024/02/27 12:28:08;;;;;;;;;;;;;;;21.75;26.49;98247.22;5035701;28;805;-75
2024/02/27 12:30:34;;;;;;;;;;;;;;;21.90;26.47;98242.00;5015038;28;1981;-76
2024/02/27 12:32:59;;;;;;;;;;;;;;;22.12;26.04;98239.47;4998406;28;966;-75
2024/02/27 12:35:26;;;;;;;;;;;;;;;21.94;26.09;98237.06;5014835;28;743;-74
2024/02/27 12:37:51;;;;;;;;;;;;;;;21.96;26.18;98239.44;4998568;28;860;-76
2024/02/27 12:40:18;;;;;;;;;;;;;;;21.56;26.63;98233.94;5014556;28;1089;-75
2024/02/27 12:42:44;;;;;;;;;;;;;;;21.46;26.73;98232.13;4998528;28;735;-75
2024/02/27 12:45:10;;;;;;;;;;;;;;;21.40;27.02;98234.69;4998325;28;986;-75
2024/02/27 12:47:36;;;;;;;;;;;;;;;21.88;26.32;98238.03;4982163;28;1124;-75
2024/02/27 12:50:02;;;;;;;;;;;;;;;21.98;26.24;98237.00;4997742;28;824;-75
2024/02/27 12:52:28;;;;;;;;;;;;;;;22.02;26.23;98238.50;4998496;28;1991;-76
2024/02/27 12:54:54;;;;;;;;;;;;;;;21.97;26.22;98235.41;4998038;28;822;-76
2024/02/27 12:57:19;;;;;;;;;;;;;;;21.84;26.14;98244.56;5014766;28;829;-75